Ballentine, SC (29002)

5:40 PM EDT on May 29, 2017 (GMT -0400)
Ballentine | | Change Station
Active Advisory: Severe Thunderstorm Watch

Elev 362 ft 34.12 °N, 81.25 °W | Updated 4 seconds ago

Clear
Clear
83.3 °F
Feels Like 89 °F
N
0.0
Wind Variable Wind from North
Gusts 1.3 mph

Today
High -- | Low -- °F
--% Chance of Precip.
Yesterday
High -- | Low -- °F
Precip. -- in
Pressure 29.94 in
Visibility 10.0 miles
Clouds Scattered Clouds 6000 ft
Scattered Clouds 20000 ft
Heat Index 89 °F
Dew Point 73 °F
Humidity 71%
Rainfall 0.00 in
Snow Depth Not available.
6:15 AM 8:29 PM
Waxing Crescent, 23% visible
METAR KCAE 292056Z VRB03KT 10SM SCT060 SCT200 33/19 A2995 RMK AO2 SLP139 T03280189 56008
Pressure 29.94 in
Visibility 10.0 miles
Clouds Scattered Clouds 6000 ft
Scattered Clouds 20000 ft
Heat Index 89 °F
Dew Point 73 °F
Humidity 71%
Rainfall 0.00 in
Snow Depth Not available.
6:15 AM 8:29 PM
Waxing Crescent, 23% visible
METAR KCAE 292056Z VRB03KT 10SM SCT060 SCT200 33/19 A2995 RMK AO2 SLP139 T03280189 56008

Get Your Daily Forecast Email!

Thanks for signing up!

Be on the lookout for a verification email in your inbox.

You'll start receiving severe weather alerts in your inbox..

×

10-Day Weather Forecast

Almanac

Astronomy

May. 29, 2017 Rise Set
Actual Time
Civil Twilight
Nautical Twilight
Astronomical Twilight
Moon
Length of Visible Light
Length of Day
Tomorrow will be .
, % of the Moon is Illuminated

Today's Extremes

State Highs State Lows

Community

WunderPhotos

Category 6

Welcome to Category 6. This is the collective home for Weather Underground's featured writeups by Dr. Jeff Masters (right), Bob Henson (left), Chris Burt, and other regular contributors.

Nearby

Air Quality

  Air Quality AQ Index Pollutant
Not available.

Snow Depth

Station Depth Elevation

Earthquake Activity

City Distance Mag. Time & Date
Minimum magnitude displayed is 2.5.

Coastal Water Temperatures

Place Temperature

Stations

Nearby Weather Stations

Station Location Temp. Windchill Dew Point Humidity Wind Precip. Elev Updated Type
                   

Watches & Warnings

Severe Thunderstorm Watch
Issued: 5:24 PM EDT May. 29, 2017 – National Weather Service

Severe Thunderstorm Watch 298 remains in effect until 900 PM EDT

SC
. South Carolina counties included are

Abbeville Aiken Anderson
Bamberg Barnwell Calhoun
Cherokee Chester Chesterfield
Clarendon Edgefield Fairfield
Greenville Greenwood Kershaw
Lancaster Laurens Lee
Lexington McCormick Newberry
Oconee Orangeburg Pickens
Richland Saluda Spartanburg
Sumter Union York